Time;durP1;ratioP1;P1;durP2;ratioP2;P2;SDS_P1;SDS_P2;PMS_P1;PMS_P2;Temp;Humidity;BMP_temperature;BMP_pressure;BME280_temperature;BME280_humidity;BME280_pressure;Samples;Min_cycle;Max_cycle;Signal;HPM_P1;HPM_P2
2022/03/22 00:01:35;;;;;;;25.73;12.88;;;;;;;2.23;53.82;95122.16;5048077;28;20509;-48
2022/03/22 00:04:03;;;;;;;28.15;12.88;;;;;;;2.15;53.94;95120.31;5049588;28;20109;-50
2022/03/22 00:06:30;;;;;;;23.35;11.90;;;;;;;2.13;53.99;95126.09;5048866;28;20059;-50
2022/03/22 00:08:57;;;;;;;25.15;12.27;;;;;;;2.09;53.93;95127.84;5049571;28;20039;-52
2022/03/22 00:11:24;;;;;;;27.33;13.27;;;;;;;2.10;54.28;95128.66;5048844;28;20052;-51
2022/03/22 00:13:54;;;;;;;24.85;11.82;;;;;;;2.08;54.61;95126.28;5049474;28;20041;-48
2022/03/22 00:16:20;;;;;;;24.40;12.55;;;;;;;1.97;54.54;95134.00;5049496;28;20684;-53
2022/03/22 00:19:07;;;;;;;24.40;12.45;;;;;;;1.90;54.67;95119.41;5048506;28;20433;-48
2022/03/22 00:21:35;;;;;;;21.42;11.40;;;;;;;1.76;55.34;95120.47;5048511;28;20044;-50
2022/03/22 00:24:03;;;;;;;23.60;11.90;;;;;;;1.61;55.86;95121.06;5049398;28;20067;-51
2022/03/22 00:26:30;;;;;;;21.55;10.90;;;;;;;1.66;55.36;95117.38;5048532;28;20110;-53
2022/03/22 00:28:58;;;;;;;23.40;11.52;;;;;;;1.68;55.75;95118.59;5049286;28;20045;-52
2022/03/22 00:31:29;;;;;;;23.30;11.73;;;;;;;1.60;55.84;95112.13;5045093;28;20417;-52
2022/03/22 00:33:56;;;;;;;27.38;13.35;;;;;;;1.57;55.91;95117.41;5037992;28;20095;-55
2022/03/22 00:36:23;;;;;;;29.17;13.83;;;;;;;1.60;56.01;95122.16;5045913;28;20045;-50
2022/03/22 00:38:50;;;;;;;28.67;14.10;;;;;;;1.60;55.58;95117.53;5049977;28;20041;-53
2022/03/22 00:41:18;;;;;;;28.15;14.05;;;;;;;1.56;55.36;95111.19;5049982;28;20505;-47
2022/03/22 00:43:46;;;;;;;24.83;12.85;;;;;;;1.52;55.67;95115.69;5049571;28;20059;-48
2022/03/22 00:46:13;;;;;;;24.67;11.75;;;;;;;1.50;55.51;95114.44;5049978;28;20049;-48
2022/03/22 00:48:40;;;;;;;25.93;11.53;;;;;;;1.51;56.11;95110.59;5049039;28;20692;-48
2022/03/22 00:51:09;;;;;;;24.02;11.40;;;;;;;1.45;56.00;95114.63;5049452;28;20053;-55
2022/03/22 00:53:36;;;;;;;22.88;10.88;;;;;;;1.49;55.66;95107.44;5049209;28;20052;-53
2022/03/22 00:56:04;;;;;;;28.33;12.70;;;;;;;1.35;56.34;95110.41;5049493;28;20050;-54
2022/03/22 00:58:32;;;;;;;23.70;11.90;;;;;;;1.30;56.55;95105.16;5049067;28;20065;-54
2022/03/22 01:00:59;;;;;;;48.87;19.33;;;;;;;1.24;56.55;95101.84;5049403;28;20052;-51
2022/03/22 01:03:28;;;;;;;41.25;17.13;;;;;;;1.23;56.35;95113.00;5048986;28;20047;-49
2022/03/22 01:05:59;;;;;;;30.02;13.50;;;;;;;1.20;56.52;95099.00;5049601;28;20045;-51
2022/03/22 01:08:28;;;;;;;24.10;11.93;;;;;;;1.14;56.49;95099.53;5049235;28;20067;-52
2022/03/22 01:10:56;;;;;;;24.85;11.48;;;;;;;1.13;56.92;95101.44;5049757;28;20055;-54
2022/03/22 01:13:25;;;;;;;23.83;11.00;;;;;;;1.10;57.14;95093.19;5052603;28;20053;-56
2022/03/22 01:15:52;;;;;;;23.20;11.35;;;;;;;1.07;56.70;95100.03;5052821;28;20456;-50
2022/03/22 01:18:21;;;;;;;23.20;11.40;;;;;;;1.05;57.13;95098.75;5053235;28;20055;-56
2022/03/22 01:20:51;;;;;;;22.63;11.15;;;;;;;1.03;57.22;95092.88;5067164;28;20066;-54
2022/03/22 01:23:19;;;;;;;22.40;11.30;;;;;;;0.96;57.21;95099.59;5052769;28;20082;-46
2022/03/22 01:25:47;;;;;;;24.00;11.30;;;;;;;0.94;57.89;95092.94;5052517;28;21157;-55
2022/03/22 01:28:15;;;;;;;22.98;11.00;;;;;;;0.87;57.84;95090.75;5052600;28;20072;-54
2022/03/22 01:30:43;;;;;;;24.48;11.60;;;;;;;0.82;57.85;95090.91;5049407;28;20122;-54
2022/03/22 01:33:11;;;;;;;22.70;11.43;;;;;;;0.76;57.88;95090.31;5038993;28;20046;-50
2022/03/22 01:35:39;;;;;;;22.83;11.30;;;;;;;0.76;58.70;95089.50;5032321;28;20053;-46
2022/03/22 01:38:07;;;;;;;22.43;10.60;;;;;;;0.70;58.46;95083.50;5047984;28;20075;-50
2022/03/22 01:40:35;;;;;;;24.63;10.88;;;;;;;0.73;58.61;95085.56;5032407;28;20045;-52
2022/03/22 01:43:02;;;;;;;24.17;11.27;;;;;;;0.73;58.49;95092.88;5032610;28;20053;-49
2022/03/22 01:45:29;;;;;;;25.83;11.32;;;;;;;0.67;58.23;95083.38;5032039;28;20045;-51
2022/03/22 01:48:02;;;;;;;25.63;11.90;;;;;;;0.69;58.84;95081.13;5032682;28;20490;-48
2022/03/22 01:50:29;;;;;;;22.60;11.03;;;;;;;0.65;58.70;95070.19;5031953;28;20060;-52
2022/03/22 01:52:58;;;;;;;23.38;11.13;;;;;;;0.64;58.86;95075.91;5032492;28;20041;-48
2022/03/22 01:55:25;;;;;;;24.25;11.73;;;;;;;0.69;59.28;95070.31;5030391;28;20050;-45
2022/03/22 01:57:54;;;;;;;24.85;11.25;;;;;;;0.54;59.36;95069.75;5032376;28;20544;-54
2022/03/22 02:00:22;;;;;;;23.63;11.38;;;;;;;0.55;59.60;95065.91;5031377;28;20059;-47
2022/03/22 02:05:57;;;;;;;23.27;11.05;;;;;;;0.51;59.66;95064.19;5031912;28;20052;-54
2022/03/22 02:08:30;;;;;;;23.15;11.32;;;;;;;0.40;59.92;95063.72;5047714;28;20090;-49
2022/03/22 02:10:59;;;;;;;24.42;11.50;;;;;;;0.00;61.37;95066.69;5052081;28;20049;-49
2022/03/22 02:13:31;;;;;;;24.45;11.30;;;;;;;-0.13;61.04;95070.34;5051401;28;20102;-52
2022/03/22 02:16:00;;;;;;;25.30;11.63;;;;;;;-0.15;61.20;95061.78;5052192;28;20051;-52
2022/03/22 02:18:27;;;;;;;26.20;12.00;;;;;;;-0.12;61.37;95063.84;5051378;28;20405;-53
2022/03/22 02:20:55;;;;;;;30.88;12.00;;;;;;;-0.05;61.65;95064.16;5052047;28;20051;-54
2022/03/22 02:23:53;;;;;;;25.88;11.07;;;;;;;-0.02;61.13;95058.91;5049187;28;20098;-47
2022/03/22 02:26:22;;;;;;;24.35;11.63;;;;;;;-0.02;61.06;95067.00;5051724;28;20045;-49
2022/03/22 02:28:55;;;;;;;25.17;11.30;;;;;;;-0.14;61.18;95069.56;5050664;28;20647;-51
2022/03/22 02:31:23;;;;;;;24.38;11.52;;;;;;;-0.26;61.93;95059.41;5044738;28;20037;-51
2022/03/22 02:33:51;;;;;;;24.10;11.75;;;;;;;-0.25;62.03;95061.00;5037815;28;20049;-50
2022/03/22 02:36:18;;;;;;;24.92;11.50;;;;;;;-0.23;61.61;95064.16;5051381;28;20498;-57
2022/03/22 02:38:45;;;;;;;25.85;11.48;;;;;;;-0.21;61.83;95061.16;5049889;28;20040;-51
2022/03/22 02:41:17;;;;;;;25.23;11.77;;;;;;;-0.18;62.17;95067.81;5051272;28;20448;-51
2022/03/22 02:43:46;;;;;;;26.35;12.18;;;;;;;-0.15;62.14;95064.50;5050999;28;20041;-49
2022/03/22 02:46:12;;;;;;;24.13;11.88;;;;;;;-0.23;61.94;95068.78;5051271;28;20045;-46
2022/03/22 02:48:39;;;;;;;26.88;11.57;;;;;;;-0.21;62.26;95067.34;5049380;28;20064;-52
2022/03/22 02:51:06;;;;;;;24.08;11.27;;;;;;;-0.33;62.82;95071.78;5051075;28;20516;-53
2022/03/22 02:53:34;;;;;;;23.83;11.83;;;;;;;-0.62;63.64;95070.50;5049328;28;20041;-49
2022/03/22 02:56:01;;;;;;;26.05;11.73;;;;;;;-0.63;63.72;95068.91;5051282;28;20049;-53
2022/03/22 02:58:28;;;;;;;26.02;12.10;;;;;;;-0.57;63.11;95069.56;5050415;28;20049;-55
2022/03/22 03:00:55;;;;;;;25.67;12.00;;;;;;;-0.54;63.10;95066.22;5050625;28;20041;-51
2022/03/22 03:03:22;;;;;;;23.08;11.43;;;;;;;-0.52;62.83;95066.72;5050473;28;20075;-52
2022/03/22 03:05:50;;;;;;;23.47;10.90;;;;;;;-0.52;63.03;95074.81;5050764;28;20102;-55
2022/03/22 03:08:18;;;;;;;25.88;11.75;;;;;;;-0.58;62.92;95070.66;5050564;28;20048;-53
2022/03/22 03:10:46;;;;;;;26.73;12.20;;;;;;;-0.61;63.07;95070.19;5050595;28;20045;-49
2022/03/22 03:13:13;;;;;;;24.00;11.68;;;;;;;-0.56;63.02;95077.34;5049534;28;20048;-54
2022/03/22 03:15:40;;;;;;;26.23;11.82;;;;;;;-0.60;62.91;95073.69;5050389;28;20512;-54
2022/03/22 03:18:08;;;;;;;30.73;12.67;;;;;;;-0.78;64.05;95072.88;5066070;28;20045;-49
2022/03/22 03:20:35;;;;;;;27.17;11.90;;;;;;;-0.96;64.85;95069.34;5050387;28;20487;-47
2022/03/22 03:23:02;;;;;;;38.72;15.77;;;;;;;-1.08;64.98;95071.84;5050708;28;20049;-51
2022/03/22 03:25:30;;;;;;;38.50;15.05;;;;;;;-1.06;65.05;95072.34;5050012;28;20138;-51
2022/03/22 03:27:56;;;;;;;33.63;14.25;;;;;;;-1.05;65.24;95079.28;5045832;28;20041;-51
2022/03/22 03:30:23;;;;;;;27.40;11.73;;;;;;;-0.99;65.26;95082.66;5030104;28;20421;-51
2022/03/22 03:32:50;;;;;;;28.00;11.90;;;;;;;-0.96;65.31;95085.50;5030678;28;20509;-53
2022/03/22 03:35:17;;;;;;;25.25;12.20;;;;;;;-1.04;65.55;95087.06;5029339;28;20058;-47
2022/03/22 03:37:45;;;;;;;26.13;12.20;;;;;;;-1.02;65.17;95086.75;5028890;28;20420;-49
2022/03/22 03:40:13;;;;;;;25.15;12.02;;;;;;;-0.95;65.42;95095.16;5030545;28;20045;-50
2022/03/22 03:42:44;;;;;;;26.97;12.43;;;;;;;-0.94;65.10;95094.06;5030171;28;20048;-50
2022/03/22 03:47:59;;;;;;;27.15;12.25;;;;;;;-0.93;65.14;95092.94;5029642;28;20049;-54
2022/03/22 03:50:26;;;;;;;25.95;11.70;;;;;;;-0.98;65.50;95100.41;5028820;28;20521;-49
2022/03/22 03:52:53;;;;;;;33.35;13.88;;;;;;;-1.17;66.34;95108.72;5029107;28;20033;-49
2022/03/22 03:55:20;;;;;;;34.13;14.60;;;;;;;-1.18;66.23;95110.63;5030426;28;20139;-54
2022/03/22 03:57:49;;;;;;;29.23;12.57;;;;;;;-1.07;66.03;95111.13;5029324;28;20858;-52
2022/03/22 04:00:16;;;;;;;26.77;12.48;;;;;;;-1.08;66.15;95106.88;5029877;28;20041;-47
2022/03/22 04:02:43;;;;;;;24.25;11.63;;;;;;;-1.08;65.45;95099.56;5029895;28;20052;-53
2022/03/22 04:05:10;;;;;;;27.30;11.90;;;;;;;-1.08;65.50;95110.34;5030355;28;20053;-54
2022/03/22 04:07:37;;;;;;;26.77;12.33;;;;;;;-1.24;66.23;95107.28;5039362;28;20075;-52
2022/03/22 04:10:05;;;;;;;27.95;12.43;;;;;;;-1.24;66.34;95112.66;5048909;28;20485;-47
2022/03/22 04:12:39;;;;;;;28.23;12.77;;;;;;;-1.33;67.11;95111.03;5049809;28;20049;-48
2022/03/22 04:15:06;;;;;;;29.95;12.77;;;;;;;-1.28;66.92;95113.59;5050276;28;20043;-53
2022/03/22 04:17:34;;;;;;;28.85;12.63;;;;;;;-1.22;66.75;95112.38;5049629;28;20044;-50
2022/03/22 04:20:01;;;;;;;32.20;13.00;;;;;;;-1.22;66.77;95106.97;5050053;28;20566;-53
2022/03/22 04:22:28;;;;;;;28.17;12.38;;;;;;;-1.22;66.97;95113.16;5049203;28;20045;-53
2022/03/22 04:25:12;;;;;;;28.52;13.02;;;;;;;-1.26;67.08;95109.50;5034494;28;20547;-50
2022/03/22 04:33:28;;;;;;;32.13;13.47;;;;;;;-1.36;67.37;95109.78;5042268;28;20041;-48
2022/03/22 04:35:54;;;;;;;29.83;13.02;;;;;;;-1.43;67.75;95109.41;5028538;28;20042;-51
2022/03/22 04:38:21;;;;;;;26.83;12.40;;;;;;;-1.47;67.79;95116.50;5029640;28;20041;-47
2022/03/22 04:40:48;;;;;;;29.27;13.35;;;;;;;-1.51;68.22;95118.22;5028700;28;20051;-48
2022/03/22 04:43:18;;;;;;;32.47;15.90;;;;;;;-1.47;68.67;95111.94;5029855;28;20111;-50
2022/03/22 04:45:45;;;;;;;33.57;16.77;;;;;;;-1.52;68.25;95114.75;5029706;28;20045;-53
2022/03/22 04:48:13;;;;;;;33.03;15.63;;;;;;;-1.48;68.23;95114.94;5033561;28;20041;-47
2022/03/22 04:50:39;;;;;;;34.85;14.73;;;;;;;-1.47;68.30;95116.50;5033182;28;20054;-50
2022/03/22 04:58:54;;;;;;;30.23;12.90;;;;;;;-1.94;69.68;95124.94;5030344;28;20304;-52
2022/03/22 05:01:20;;;;;;;28.13;11.88;;;;;;;-1.92;69.82;95124.66;5033069;28;20072;-53
2022/03/22 05:03:47;;;;;;;30.48;13.40;;;;;;;-1.86;69.33;95126.13;5031446;28;20037;-51
2022/03/22 05:06:26;;;;;;;30.40;12.68;;;;;;;-1.79;69.55;95125.66;5033493;28;20053;-53
2022/03/22 05:08:56;;;;;;;28.95;13.50;;;;;;;-1.77;69.22;95121.59;5052372;28;20910;-51
2022/03/22 05:11:23;;;;;;;32.77;13.23;;;;;;;-1.84;69.38;95126.59;5052498;28;20053;-51
2022/03/22 05:13:50;;;;;;;33.47;14.15;;;;;;;-1.83;69.67;95122.81;5052973;28;20033;-53
2022/03/22 05:16:16;;;;;;;28.42;13.35;;;;;;;-1.78;69.57;95121.91;5023679;28;20417;-50
2022/03/22 05:18:43;;;;;;;27.40;13.32;;;;;;;-1.68;69.11;95127.81;5050545;28;20048;-47
2022/03/22 05:21:10;;;;;;;29.13;12.65;;;;;;;-1.63;69.04;95129.56;5052906;28;20045;-53
2022/03/22 05:23:37;;;;;;;30.50;13.50;;;;;;;-1.84;69.70;95130.09;5052132;28;20041;-54
2022/03/22 05:26:04;;;;;;;30.52;13.23;;;;;;;-1.78;69.46;95135.34;5052758;28;20041;-51
2022/03/22 05:28:31;;;;;;;27.88;12.13;;;;;;;-1.81;69.55;95134.88;5052335;28;20055;-53
2022/03/22 05:30:58;;;;;;;30.33;12.93;;;;;;;-1.91;70.26;95128.91;5047502;28;20041;-51
2022/03/22 05:33:25;;;;;;;27.70;12.68;;;;;;;-1.86;70.22;95128.81;5035786;28;20047;-51
2022/03/22 05:35:51;;;;;;;32.63;13.33;;;;;;;-1.78;69.83;95138.03;5052507;28;20041;-51
2022/03/22 05:38:18;;;;;;;35.13;17.38;;;;;;;-1.67;69.39;95134.78;5052260;28;20045;-48
2022/03/22 05:40:46;;;;;;;32.90;15.98;;;;;;;-1.65;68.99;95135.28;5050774;28;20052;-54
2022/03/22 05:43:13;;;;;;;38.90;15.60;;;;;;;-1.61;68.88;95138.13;5052384;28;20049;-50
2022/03/22 05:45:44;;;;;;;39.78;16.80;;;;;;;-1.55;68.69;95138.81;5051841;28;20093;-46
2022/03/22 05:48:11;;;;;;;30.17;13.87;;;;;;;-1.48;68.29;95139.16;5052664;28;20506;-55
2022/03/22 05:50:38;;;;;;;33.47;13.52;;;;;;;-1.46;68.41;95140.44;5050530;28;20048;-53
2022/03/22 05:53:04;;;;;;;32.22;14.30;;;;;;;-1.42;68.01;95146.81;5052442;28;20116;-51
2022/03/22 05:55:31;;;;;;;34.28;13.13;;;;;;;-1.41;67.99;95144.88;5033991;28;20052;-53
2022/03/22 05:57:58;;;;;;;28.98;13.88;;;;;;;-1.41;68.59;95153.78;5033077;28;20056;-55
2022/03/22 06:00:25;;;;;;;31.77;13.57;;;;;;;-1.43;68.72;95152.47;5051272;28;20051;-50
2022/03/22 06:02:52;;;;;;;27.75;13.45;;;;;;;-1.32;68.49;95158.41;5050668;28;20040;-55
2022/03/22 06:05:18;;;;;;;28.23;13.30;;;;;;;-1.22;67.75;95155.47;5051963;28;20102;-48
2022/03/22 06:07:45;;;;;;;33.08;13.35;;;;;;;-1.13;67.75;95156.28;5051307;28;20052;-47
2022/03/22 06:10:12;;;;;;;34.13;14.55;;;;;;;-1.15;67.53;95153.09;5051772;28;20151;-55
2022/03/22 06:12:44;;;;;;;32.93;14.13;;;;;;;-1.10;67.14;95147.59;5050962;28;20045;-54
2022/03/22 06:15:15;;;;;;;46.10;18.05;;;;;;;-1.18;67.78;95142.16;5050155;28;20055;-47
2022/03/22 06:18:00;;;;;;;65.18;23.33;;;;;;;-1.07;67.45;95151.53;5066490;28;20044;-50
2022/03/22 06:20:32;;;;;;;46.75;18.75;;;;;;;-0.96;67.29;95146.69;5050961;28;20049;-53
2022/03/22 06:23:05;;;;;;;35.72;14.93;;;;;;;-0.82;66.89;95152.75;5035992;28;20406;-48
2022/03/22 06:25:32;;;;;;;41.40;15.40;;;;;;;-0.74;66.43;95140.44;5030155;28;20049;-49
2022/03/22 06:27:59;;;;;;;32.72;14.95;;;;;;;-0.61;66.56;95142.19;5033165;28;20053;-57
2022/03/22 06:30:27;;;;;;;29.88;14.02;;;;;;;-0.52;66.05;95144.91;5029965;28;20045;-53
2022/03/22 06:32:57;;;;;;;30.50;14.15;;;;;;;-0.61;66.41;95153.75;5031416;28;20048;-54
2022/03/22 06:35:29;;;;;;;30.83;14.48;;;;;;;-0.41;66.42;95151.59;5046350;28;20041;-49
2022/03/22 06:37:57;;;;;;;30.73;14.00;;;;;;;-0.29;65.79;95148.25;5031405;28;20046;-50
2022/03/22 06:40:28;;;;;;;32.58;14.10;;;;;;;-0.12;66.09;95156.38;5029327;28;20063;-51
2022/03/22 06:42:56;;;;;;;34.45;15.43;;;;;;;-0.12;66.22;95163.66;5033058;28;20123;-52
2022/03/22 06:45:24;;;;;;;34.97;15.10;;;;;;;-0.07;65.73;95155.44;5047847;28;20409;-52
2022/03/22 06:47:52;;;;;;;42.15;18.45;;;;;;;0.06;65.58;95150.97;5050702;28;20036;-57
2022/03/22 06:50:19;;;;;;;38.23;16.83;;;;;;;0.17;64.93;95155.72;5050703;28;20502;-47
2022/03/22 06:52:47;;;;;;;37.75;17.25;;;;;;;0.21;65.13;95155.09;5050502;28;20059;-48
2022/03/22 06:55:22;;;;;;;37.65;16.77;;;;;;;-0.14;66.21;95161.31;5049583;28;20061;-51
2022/03/22 06:57:56;;;;;;;35.05;15.98;;;;;;;-0.05;66.09;95166.69;5049630;28;20553;-50
2022/03/22 07:00:23;;;;;;;34.60;15.70;;;;;;;0.19;64.88;95153.50;5050156;28;20515;-55
2022/03/22 07:02:50;;;;;;;34.93;15.27;;;;;;;0.38;65.30;95163.16;5045632;28;20033;-51
2022/03/22 07:05:17;;;;;;;31.17;15.30;;;;;;;0.69;64.92;95159.47;5050799;28;20048;-49
2022/03/22 07:07:45;;;;;;;34.33;15.77;;;;;;;0.82;64.63;95163.09;5050303;28;20044;-55
2022/03/22 07:10:14;;;;;;;34.67;16.42;;;;;;;0.91;64.52;95161.16;5050182;28;20056;-48
2022/03/22 07:12:53;;;;;;;41.03;18.15;;;;;;;0.97;64.19;95163.38;5050308;28;20061;-56
2022/03/22 07:15:41;;;;;;;35.90;17.03;;;;;;;1.07;63.72;95164.13;5050675;28;20505;-49
2022/03/22 07:18:12;;;;;;;35.63;16.23;;;;;;;1.27;63.83;95168.00;5049457;28;20701;-49
2022/03/22 07:20:39;;;;;;;33.42;16.35;;;;;;;1.41;63.57;95165.91;5050436;28;20045;-49
2022/03/22 07:23:06;;;;;;;34.28;15.80;;;;;;;1.94;62.68;95156.31;5050762;28;20047;-50
2022/03/22 07:25:33;;;;;;;33.65;16.80;;;;;;;2.87;60.03;95161.53;5050002;28;20041;-48
2022/03/22 07:28:01;;;;;;;34.37;17.00;;;;;;;6.37;52.53;95146.97;5059046;28;20049;-53
2022/03/22 07:30:28;;;;;;;30.27;16.88;;;;;;;10.22;42.88;95146.59;5049805;28;20067;-55
2022/03/22 07:32:55;;;;;;;31.80;17.23;;;;;;;12.01;37.46;95147.09;5050371;28;20037;-52
2022/03/22 07:35:22;;;;;;;32.65;17.83;;;;;;;12.79;35.77;95145.34;5049924;28;20412;-54
2022/03/22 07:37:49;;;;;;;30.27;18.00;;;;;;;13.77;33.33;95152.69;5049270;28;20053;-51
2022/03/22 07:40:18;;;;;;;30.90;17.93;;;;;;;14.52;31.86;95144.91;5050317;28;20053;-52
2022/03/22 07:42:48;;;;;;;26.85;17.58;;;;;;;15.35;29.91;95144.69;5049784;28;20037;-59
2022/03/22 07:45:15;;;;;;;33.50;17.65;;;;;;;15.26;29.43;95147.97;5050470;28;20044;-56
2022/03/22 07:47:42;;;;;;;26.25;17.48;;;;;;;16.29;28.53;95147.59;5049631;28;20743;-52
2022/03/22 07:52:58;;;;;;;26.03;17.40;;;;;;;17.20;26.52;95146.69;5049296;28;20802;-58
2022/03/22 07:55:25;;;;;;;28.05;17.77;;;;;;;18.53;25.82;95138.78;5049782;28;20045;-53
2022/03/22 07:57:51;;;;;;;24.48;17.55;;;;;;;19.57;24.31;95138.66;5049869;28;20059;-55
2022/03/22 08:00:21;;;;;;;29.48;17.08;;;;;;;20.60;23.18;95133.00;5048432;28;20045;-53
2022/03/22 08:03:04;;;;;;;22.83;16.88;;;;;;;20.69;22.18;95131.06;5049469;28;20848;-57
2022/03/22 08:05:34;;;;;;;23.57;16.93;;;;;;;21.10;22.01;95129.19;5049995;28;20049;-52
2022/03/22 08:08:05;;;;;;;24.98;17.08;;;;;;;20.67;22.78;95129.97;5050163;28;20083;-56
2022/03/22 08:10:52;;;;;;;25.65;17.00;;;;;;;21.66;20.81;95129.53;5049099;28;20045;-51
2022/03/22 08:13:19;;;;;;;24.98;16.88;;;;;;;21.38;21.13;95126.56;5049978;28;20056;-50
2022/03/22 08:15:45;;;;;;;24.70;17.13;;;;;;;21.50;20.87;95130.56;5045875;28;20451;-53
2022/03/22 08:18:12;;;;;;;23.97;16.53;;;;;;;23.51;19.28;95117.31;5051088;28;20072;-53
2022/03/22 08:20:39;;;;;;;26.42;16.65;;;;;;;21.29;21.43;95120.97;5029554;28;20076;-53
2022/03/22 08:23:07;;;;;;;25.58;16.52;;;;;;;22.92;18.96;95117.53;5049259;28;20430;-50
2022/03/22 08:25:36;;;;;;;20.90;16.00;;;;;;;22.77;19.31;95111.00;5033435;28;20048;-51
2022/03/22 08:28:06;;;;;;;23.27;17.23;;;;;;;22.86;19.11;95113.03;5051959;28;20067;-50
2022/03/22 08:30:33;;;;;;;24.70;16.60;;;;;;;21.31;20.09;95124.06;5053402;28;20049;-50
2022/03/22 08:33:09;;;;;;;22.52;16.38;;;;;;;21.04;21.14;95122.63;5053976;28;20053;-52
2022/03/22 08:35:46;;;;;;;19.77;15.30;;;;;;;19.65;21.95;95119.72;5068685;28;20527;-52
2022/03/22 08:38:14;;;;;;;21.88;15.73;;;;;;;21.03;20.49;95120.31;5053697;28;20128;-55
2022/03/22 08:40:41;;;;;;;21.73;16.85;;;;;;;18.00;22.90;95115.94;5053451;28;20044;-51
2022/03/22 08:43:08;;;;;;;20.83;15.63;;;;;;;20.01;21.24;95119.41;5053579;28;20055;-55
2022/03/22 08:45:36;;;;;;;21.58;16.38;;;;;;;19.56;21.51;95112.81;5053130;28;20041;-53
2022/03/22 08:48:09;;;;;;;22.13;15.80;;;;;;;23.69;18.41;95104.47;5053608;28;20066;-56
2022/03/22 08:50:38;;;;;;;21.85;15.32;;;;;;;24.06;17.03;95109.94;5053092;28;20455;-53
2022/03/22 08:53:06;;;;;;;21.98;15.80;;;;;;;25.19;16.15;95107.41;5053513;28;20049;-52
2022/03/22 08:55:33;;;;;;;19.83;15.53;;;;;;;25.44;15.61;95105.34;5052835;28;20110;-53
2022/03/22 08:58:05;;;;;;;21.30;15.30;;;;;;;26.09;15.38;95102.53;5053183;28;20041;-56
2022/03/22 09:00:36;;;;;;;22.77;15.38;;;;;;;25.89;15.25;95106.03;5052558;28;20056;-49
2022/03/22 09:03:04;;;;;;;21.05;14.95;;;;;;;26.68;14.08;95096.72;5053114;28;20041;-55
2022/03/22 09:08:18;;;;;;;23.77;14.87;;;;;;;28.35;13.42;95088.72;5053079;28;20055;-54
2022/03/22 09:10:46;;;;;;;19.13;14.68;;;;;;;28.49;13.61;95095.47;5052647;28;20049;-48
2022/03/22 09:13:13;;;;;;;22.52;16.17;;;;;;;24.39;16.32;95087.47;5052932;28;20048;-48
2022/03/22 09:15:40;;;;;;;22.67;15.15;;;;;;;23.04;16.61;95095.47;5049552;28;20046;-49
2022/03/22 09:18:13;;;;;;;20.40;15.80;;;;;;;22.45;16.74;95095.59;5044424;28;20071;-54
2022/03/22 09:20:42;;;;;;;20.17;15.20;;;;;;;26.03;15.02;95101.69;5032905;28;20054;-51
2022/03/22 09:23:09;;;;;;;19.20;15.13;;;;;;;25.98;15.13;95100.34;5032993;28;20046;-50
2022/03/22 09:25:36;;;;;;;18.52;14.40;;;;;;;29.33;12.78;95086.56;5032649;28;20046;-51
2022/03/22 09:28:05;;;;;;;20.35;14.98;;;;;;;26.56;14.03;95082.94;5050799;28;20075;-51
2022/03/22 09:30:34;;;;;;;19.52;14.27;;;;;;;27.36;13.61;95086.19;5052447;28;20102;-52
2022/03/22 09:33:03;;;;;;;20.53;15.23;;;;;;;29.41;12.51;95079.09;5052364;28;20057;-51
2022/03/22 09:35:31;;;;;;;19.55;14.23;;;;;;;28.00;13.54;95083.38;5050951;28;20045;-52
2022/03/22 09:38:00;;;;;;;20.33;14.77;;;;;;;29.37;12.31;95080.66;5052545;28;20053;-55
2022/03/22 09:40:27;;;;;;;17.65;13.82;;;;;;;29.79;12.14;95084.56;5050974;28;20102;-51
2022/03/22 09:42:55;;;;;;;18.02;14.20;;;;;;;30.20;11.54;95083.97;5052399;28;20428;-52
2022/03/22 09:45:28;;;;;;;19.27;14.03;;;;;;;29.15;12.56;95081.38;5052098;28;20049;-48
2022/03/22 09:47:56;;;;;;;18.77;14.00;;;;;;;30.97;11.75;95081.47;5052500;28;20039;-52
2022/03/22 09:51:44;;;;;;;17.73;13.50;;;;;;;30.29;11.57;95078.06;5051800;28;20412;-54
2022/03/22 09:53:12;;;;;;;18.85;15.05;;;;;;;24.55;15.44;95072.25;5052297;28;20105;-50
2022/03/22 09:55:40;;;;;;;22.02;14.38;;;;;;;23.21;17.36;95081.91;5051948;28;20041;-50
2022/03/22 09:58:07;;;;;;;19.97;15.23;;;;;;;26.53;14.89;95078.31;5052161;28;20408;-56
2022/03/22 10:00:34;;;;;;;20.08;15.02;;;;;;;26.18;14.20;95079.91;5044924;28;20045;-54
2022/03/22 10:03:01;;;;;;;21.23;14.70;;;;;;;27.70;14.06;95073.13;5051504;28;20859;-50
2022/03/22 10:05:29;;;;;;;19.20;14.45;;;;;;;29.97;12.34;95072.69;5046969;28;20097;-50
2022/03/22 10:08:01;;;;;;;21.33;14.80;;;;;;;29.23;12.89;95074.72;5043662;28;20041;-55
2022/03/22 10:10:28;;;;;;;21.30;15.03;;;;;;;28.01;13.62;95065.16;5051410;28;20041;-49
2022/03/22 10:12:58;;;;;;;20.85;14.90;;;;;;;25.52;15.82;95072.75;5051458;28;20048;-49
2022/03/22 10:15:33;;;;;;;19.35;15.10;;;;;;;26.24;15.10;95072.31;5050983;28;20057;-53
2022/03/22 10:18:06;;;;;;;22.45;14.38;;;;;;;27.06;14.25;95065.88;5051268;28;20528;-53
2022/03/22 10:20:36;;;;;;;21.95;14.88;;;;;;;25.28;15.48;95067.25;5050894;28;20063;-55
2022/03/22 10:23:05;;;;;;;19.57;14.10;;;;;;;25.70;15.40;95066.16;5051100;28;20048;-54
2022/03/22 10:25:37;;;;;;;18.88;13.75;;;;;;;29.80;11.82;95066.28;5050719;28;20049;-52
2022/03/22 10:28:06;;;;;;;18.45;13.93;;;;;;;31.01;11.09;95067.78;5060124;28;20097;-51
2022/03/22 10:30:34;;;;;;;19.70;13.68;;;;;;;29.54;11.68;95064.47;5050597;28;20048;-51
2022/03/22 10:33:02;;;;;;;17.52;11.48;;;;;;;30.25;9.49;95050.00;5034281;28;20057;-53
2022/03/22 10:35:36;;;;;;;20.73;12.80;;;;;;;29.00;10.67;95047.66;5030852;28;20050;-53
2022/03/22 10:38:09;;;;;;;15.77;12.15;;;;;;;28.77;11.57;95044.00;5031272;28;20037;-54
2022/03/22 10:40:44;;;;;;;17.73;13.02;;;;;;;20.77;17.71;95058.31;5030461;28;20056;-52
2022/03/22 10:43:23;;;;;;;15.48;10.88;;;;;;;24.00;13.62;95044.56;5030678;28;20152;-55
2022/03/22 10:46:00;;;;;;;16.38;10.65;;;;;;;24.24;12.05;95048.13;5029709;28;20426;-52
2022/03/22 10:48:38;;;;;;;16.27;11.57;;;;;;;27.01;12.38;95047.66;5030485;28;20553;-50
2022/03/22 10:51:06;;;;;;;16.50;12.07;;;;;;;27.85;11.33;95044.78;5030739;28;20049;-51
2022/03/22 10:53:35;;;;;;;16.05;12.15;;;;;;;29.22;10.94;95039.25;5030282;28;20103;-53
2022/03/22 10:56:04;;;;;;;19.63;11.80;;;;;;;23.10;13.44;95045.97;5030326;28;20053;-55
2022/03/22 10:58:32;;;;;;;15.40;10.30;;;;;;;29.30;9.54;95038.72;5030224;28;20041;-52
2022/03/22 11:01:03;;;;;;;13.73;10.00;;;;;;;30.33;8.85;95043.84;5030142;28;20068;-51
2022/03/22 11:03:32;;;;;;;12.23;9.00;;;;;;;29.98;7.63;95034.63;5030154;28;20387;-49
2022/03/22 11:06:03;;;;;;;14.60;10.45;;;;;;;29.76;9.02;95040.31;5030672;28;20045;-57
2022/03/22 11:08:30;;;;;;;15.15;10.70;;;;;;;27.83;10.68;95035.25;5046872;28;20041;-54
2022/03/22 11:10:58;;;;;;;15.73;11.73;;;;;;;26.06;11.62;95041.66;5050367;28;20059;-50
2022/03/22 11:13:25;;;;;;;15.90;11.10;;;;;;;29.05;9.80;95033.53;5049970;28;20063;-55
2022/03/22 11:15:55;;;;;;;15.52;10.82;;;;;;;28.96;9.72;95030.97;5050356;28;20047;-52
2022/03/22 11:18:25;;;;;;;17.88;11.57;;;;;;;29.27;10.03;95035.66;5049501;28;20186;-50
2022/03/22 11:20:56;;;;;;;18.92;12.20;;;;;;;23.47;13.61;95032.63;5050348;28;20520;-52
2022/03/22 11:23:25;;;;;;;15.68;11.63;;;;;;;23.05;13.89;95033.41;5049493;28;20045;-52
2022/03/22 11:25:53;;;;;;;15.40;11.50;;;;;;;26.42;11.43;95025.44;5049869;28;20041;-55
2022/03/22 11:28:22;;;;;;;15.15;11.40;;;;;;;27.01;10.93;95025.09;5045953;28;20052;-55
2022/03/22 11:30:51;;;;;;;14.70;10.98;;;;;;;28.56;10.37;95029.31;5048941;28;21461;-53
2022/03/22 11:36:19;;;;;;;15.68;11.38;;;;;;;28.23;10.38;95025.81;5048867;28;20879;-52
2022/03/22 11:38:51;;;;;;;19.67;11.07;;;;;;;28.20;10.29;95023.97;5049442;28;20037;-51
2022/03/22 11:44:19;;;;;;;15.13;10.60;;;;;;;22.91;12.93;95026.41;5048812;28;20049;-53
2022/03/22 11:46:48;;;;;;;18.10;11.60;;;;;;;21.46;14.83;95021.75;5048101;28;20478;-49
2022/03/22 11:49:16;;;;;;;16.45;11.35;;;;;;;21.43;15.23;95021.91;5031821;28;20037;-52
2022/03/22 11:51:48;;;;;;;19.23;11.27;;;;;;;21.17;15.46;95021.28;5049037;28;20057;-51
2022/03/22 11:54:14;;;;;;;17.25;10.77;;;;;;;20.06;15.95;95012.94;5049251;28;20494;-51
2022/03/22 11:56:52;;;;;;;19.90;11.15;;;;;;;20.38;15.88;95018.63;5048995;28;20045;-50